sensor_id;sensor_type;location;lat;lon;timestamp;P1;durP1;ratioP1;P2;durP2;ratioP2
19919;SDS011;10122;50.074;19.920;2022-11-11T00:00:33;53.70;;;25.42;;
19919;SDS011;10122;50.074;19.920;2022-11-11T00:03:00;54.17;;;24.67;;
19919;SDS011;10122;50.074;19.920;2022-11-11T00:05:26;49.22;;;24.38;;
19919;SDS011;10122;50.074;19.920;2022-11-11T00:07:53;50.60;;;24.30;;
19919;SDS011;10122;50.074;19.920;2022-11-11T00:10:28;50.95;;;24.17;;
19919;SDS011;10122;50.074;19.920;2022-11-11T00:13:00;51.92;;;24.75;;
19919;SDS011;10122;50.074;19.920;2022-11-11T00:15:27;51.85;;;24.75;;
19919;SDS011;10122;50.074;19.920;2022-11-11T00:17:53;56.13;;;25.75;;
19919;SDS011;10122;50.074;19.920;2022-11-11T00:20:38;55.22;;;24.50;;
19919;SDS011;10122;50.074;19.920;2022-11-11T00:23:22;55.55;;;24.83;;
19919;SDS011;10122;50.074;19.920;2022-11-11T00:26:09;53.38;;;24.25;;
19919;SDS011;10122;50.074;19.920;2022-11-11T00:28:37;48.80;;;23.55;;
19919;SDS011;10122;50.074;19.920;2022-11-11T00:31:10;52.03;;;24.05;;
19919;SDS011;10122;50.074;19.920;2022-11-11T00:33:36;51.13;;;23.40;;
19919;SDS011;10122;50.074;19.920;2022-11-11T00:36:03;51.67;;;23.33;;
19919;SDS011;10122;50.074;19.920;2022-11-11T00:38:29;49.75;;;24.30;;
19919;SDS011;10122;50.074;19.920;2022-11-11T00:41:13;47.83;;;23.77;;
19919;SDS011;10122;50.074;19.920;2022-11-11T00:43:41;50.22;;;24.00;;
19919;SDS011;10122;50.074;19.920;2022-11-11T00:46:07;51.63;;;23.70;;
19919;SDS011;10122;50.074;19.920;2022-11-11T00:48:51;52.67;;;24.52;;
19919;SDS011;10122;50.074;19.920;2022-11-11T00:51:35;50.50;;;23.85;;
19919;SDS011;10122;50.074;19.920;2022-11-11T00:54:01;50.45;;;24.58;;
19919;SDS011;10122;50.074;19.920;2022-11-11T00:56:27;53.88;;;24.45;;
19919;SDS011;10122;50.074;19.920;2022-11-11T00:58:52;50.03;;;24.52;;
19919;SDS011;10122;50.074;19.920;2022-11-11T01:01:18;54.47;;;24.83;;
19919;SDS011;10122;50.074;19.920;2022-11-11T01:03:44;54.17;;;24.95;;
19919;SDS011;10122;50.074;19.920;2022-11-11T01:06:10;54.15;;;25.85;;
19919;SDS011;10122;50.074;19.920;2022-11-11T01:08:36;50.38;;;23.80;;
19919;SDS011;10122;50.074;19.920;2022-11-11T01:11:02;45.33;;;23.05;;
19919;SDS011;10122;50.074;19.920;2022-11-11T01:13:29;49.33;;;23.27;;
19919;SDS011;10122;50.074;19.920;2022-11-11T01:15:59;46.15;;;23.83;;
19919;SDS011;10122;50.074;19.920;2022-11-11T01:18:27;51.33;;;24.20;;
19919;SDS011;10122;50.074;19.920;2022-11-11T01:20:59;53.28;;;23.75;;
19919;SDS011;10122;50.074;19.920;2022-11-11T01:23:28;49.58;;;24.00;;
19919;SDS011;10122;50.074;19.920;2022-11-11T01:25:59;52.58;;;24.45;;
19919;SDS011;10122;50.074;19.920;2022-11-11T01:28:37;49.13;;;24.45;;
19919;SDS011;10122;50.074;19.920;2022-11-11T01:31:07;55.95;;;24.85;;
19919;SDS011;10122;50.074;19.920;2022-11-11T01:33:35;51.33;;;23.95;;
19919;SDS011;10122;50.074;19.920;2022-11-11T01:36:23;50.30;;;24.30;;
19919;SDS011;10122;50.074;19.920;2022-11-11T01:38:49;50.75;;;23.23;;
19919;SDS011;10122;50.074;19.920;2022-11-11T01:41:17;50.78;;;24.58;;
19919;SDS011;10122;50.074;19.920;2022-11-11T01:44:19;50.15;;;23.88;;
19919;SDS011;10122;50.074;19.920;2022-11-11T01:46:45;50.80;;;24.13;;
19919;SDS011;10122;50.074;19.920;2022-11-11T01:49:29;46.95;;;23.88;;
19919;SDS011;10122;50.074;19.920;2022-11-11T01:57:33;51.38;;;23.55;;
19919;SDS011;10122;50.074;19.920;2022-11-11T02:00:05;48.20;;;23.70;;
19919;SDS011;10122;50.074;19.920;2022-11-11T02:05:10;53.90;;;24.23;;
19919;SDS011;10122;50.074;19.920;2022-11-11T02:07:57;48.42;;;23.90;;
19919;SDS011;10122;50.074;19.920;2022-11-11T02:10:26;50.83;;;24.77;;
19919;SDS011;10122;50.074;19.920;2022-11-11T02:12:54;48.30;;;23.77;;
19919;SDS011;10122;50.074;19.920;2022-11-11T02:15:38;48.28;;;23.88;;
19919;SDS011;10122;50.074;19.920;2022-11-11T02:18:04;47.67;;;23.55;;
19919;SDS011;10122;50.074;19.920;2022-11-11T02:20:33;47.40;;;23.83;;
19919;SDS011;10122;50.074;19.920;2022-11-11T02:25:38;48.55;;;25.23;;
19919;SDS011;10122;50.074;19.920;2022-11-11T02:28:09;48.17;;;23.55;;
19919;SDS011;10122;50.074;19.920;2022-11-11T02:30:35;48.00;;;23.60;;
19919;SDS011;10122;50.074;19.920;2022-11-11T02:33:01;51.65;;;24.88;;
19919;SDS011;10122;50.074;19.920;2022-11-11T02:35:34;45.53;;;23.20;;
19919;SDS011;10122;50.074;19.920;2022-11-11T02:38:02;44.08;;;23.45;;
19919;SDS011;10122;50.074;19.920;2022-11-11T02:40:43;46.42;;;23.20;;
19919;SDS011;10122;50.074;19.920;2022-11-11T02:43:29;46.15;;;24.70;;
19919;SDS011;10122;50.074;19.920;2022-11-11T02:45:56;46.58;;;23.85;;
19919;SDS011;10122;50.074;19.920;2022-11-11T02:48:22;46.20;;;24.40;;
19919;SDS011;10122;50.074;19.920;2022-11-11T02:50:49;51.53;;;24.73;;
19919;SDS011;10122;50.074;19.920;2022-11-11T02:53:14;47.58;;;24.63;;
19919;SDS011;10122;50.074;19.920;2022-11-11T02:55:40;47.67;;;24.13;;
19919;SDS011;10122;50.074;19.920;2022-11-11T02:58:06;50.55;;;24.95;;
19919;SDS011;10122;50.074;19.920;2022-11-11T03:00:32;46.20;;;24.15;;
19919;SDS011;10122;50.074;19.920;2022-11-11T03:02:57;54.00;;;24.95;;
19919;SDS011;10122;50.074;19.920;2022-11-11T03:05:23;45.63;;;22.92;;
19919;SDS011;10122;50.074;19.920;2022-11-11T03:07:49;44.90;;;23.42;;
19919;SDS011;10122;50.074;19.920;2022-11-11T03:10:15;48.47;;;24.65;;
19919;SDS011;10122;50.074;19.920;2022-11-11T03:12:40;45.63;;;23.88;;
19919;SDS011;10122;50.074;19.920;2022-11-11T03:15:06;47.00;;;24.25;;
19919;SDS011;10122;50.074;19.920;2022-11-11T03:17:32;48.53;;;23.92;;
19919;SDS011;10122;50.074;19.920;2022-11-11T03:20:07;49.00;;;25.00;;
19919;SDS011;10122;50.074;19.920;2022-11-11T03:25:26;48.35;;;24.42;;
19919;SDS011;10122;50.074;19.920;2022-11-11T03:28:13;48.22;;;23.98;;
19919;SDS011;10122;50.074;19.920;2022-11-11T03:30:44;47.38;;;24.65;;
19919;SDS011;10122;50.074;19.920;2022-11-11T03:33:11;48.30;;;24.92;;
19919;SDS011;10122;50.074;19.920;2022-11-11T03:35:37;47.15;;;24.05;;
19919;SDS011;10122;50.074;19.920;2022-11-11T03:38:04;45.15;;;23.23;;
19919;SDS011;10122;50.074;19.920;2022-11-11T03:40:46;44.20;;;23.55;;
19919;SDS011;10122;50.074;19.920;2022-11-11T03:43:13;45.88;;;23.77;;
19919;SDS011;10122;50.074;19.920;2022-11-11T03:45:41;45.38;;;23.75;;
19919;SDS011;10122;50.074;19.920;2022-11-11T03:48:07;45.15;;;23.90;;
19919;SDS011;10122;50.074;19.920;2022-11-11T03:50:33;43.92;;;23.73;;
19919;SDS011;10122;50.074;19.920;2022-11-11T03:52:59;43.45;;;23.02;;
19919;SDS011;10122;50.074;19.920;2022-11-11T03:55:25;42.55;;;23.27;;
19919;SDS011;10122;50.074;19.920;2022-11-11T03:57:51;42.97;;;21.98;;
19919;SDS011;10122;50.074;19.920;2022-11-11T04:00:18;43.95;;;23.38;;
19919;SDS011;10122;50.074;19.920;2022-11-11T04:02:45;43.83;;;22.90;;
19919;SDS011;10122;50.074;19.920;2022-11-11T04:05:30;44.25;;;24.30;;
19919;SDS011;10122;50.074;19.920;2022-11-11T04:08:15;44.70;;;23.98;;
19919;SDS011;10122;50.074;19.920;2022-11-11T04:11:20;47.90;;;24.08;;
19919;SDS011;10122;50.074;19.920;2022-11-11T04:14:08;47.08;;;24.30;;
19919;SDS011;10122;50.074;19.920;2022-11-11T04:16:54;48.42;;;24.38;;
19919;SDS011;10122;50.074;19.920;2022-11-11T04:19:20;47.28;;;24.63;;
19919;SDS011;10122;50.074;19.920;2022-11-11T04:22:04;45.10;;;23.67;;
19919;SDS011;10122;50.074;19.920;2022-11-11T04:24:30;46.85;;;23.73;;
19919;SDS011;10122;50.074;19.920;2022-11-11T04:27:16;46.83;;;23.98;;
19919;SDS011;10122;50.074;19.920;2022-11-11T04:29:42;45.55;;;23.25;;
19919;SDS011;10122;50.074;19.920;2022-11-11T04:32:14;44.90;;;22.92;;
19919;SDS011;10122;50.074;19.920;2022-11-11T04:35:04;43.83;;;23.35;;
19919;SDS011;10122;50.074;19.920;2022-11-11T04:37:32;46.50;;;23.70;;
19919;SDS011;10122;50.074;19.920;2022-11-11T04:40:00;46.47;;;24.30;;
19919;SDS011;10122;50.074;19.920;2022-11-11T04:42:44;47.97;;;24.17;;
19919;SDS011;10122;50.074;19.920;2022-11-11T04:45:10;48.13;;;24.42;;
19919;SDS011;10122;50.074;19.920;2022-11-11T04:47:53;46.38;;;23.45;;
19919;SDS011;10122;50.074;19.920;2022-11-11T04:50:33;47.67;;;24.23;;
19919;SDS011;10122;50.074;19.920;2022-11-11T04:53:01;47.95;;;25.13;;
19919;SDS011;10122;50.074;19.920;2022-11-11T04:55:28;47.40;;;23.73;;
19919;SDS011;10122;50.074;19.920;2022-11-11T04:58:13;43.00;;;23.70;;
19919;SDS011;10122;50.074;19.920;2022-11-11T05:00:39;45.67;;;23.98;;
19919;SDS011;10122;50.074;19.920;2022-11-11T05:03:05;45.83;;;23.75;;
19919;SDS011;10122;50.074;19.920;2022-11-11T05:05:40;50.88;;;24.92;;
19919;SDS011;10122;50.074;19.920;2022-11-11T05:08:29;49.20;;;25.13;;
19919;SDS011;10122;50.074;19.920;2022-11-11T05:11:13;44.90;;;23.95;;
19919;SDS011;10122;50.074;19.920;2022-11-11T05:13:39;49.67;;;24.92;;
19919;SDS011;10122;50.074;19.920;2022-11-11T05:16:24;48.92;;;24.35;;
19919;SDS011;10122;50.074;19.920;2022-11-11T05:19:11;43.90;;;23.30;;
19919;SDS011;10122;50.074;19.920;2022-11-11T05:22:00;46.42;;;23.67;;
19919;SDS011;10122;50.074;19.920;2022-11-11T05:24:40;48.35;;;24.48;;
19919;SDS011;10122;50.074;19.920;2022-11-11T05:27:24;46.88;;;24.02;;
19919;SDS011;10122;50.074;19.920;2022-11-11T05:29:50;48.58;;;23.63;;
19919;SDS011;10122;50.074;19.920;2022-11-11T05:32:17;52.38;;;25.35;;
19919;SDS011;10122;50.074;19.920;2022-11-11T05:34:44;50.58;;;24.48;;
19919;SDS011;10122;50.074;19.920;2022-11-11T05:37:10;49.05;;;23.85;;
19919;SDS011;10122;50.074;19.920;2022-11-11T05:39:36;45.65;;;23.50;;
19919;SDS011;10122;50.074;19.920;2022-11-11T05:42:01;43.22;;;23.40;;
19919;SDS011;10122;50.074;19.920;2022-11-11T05:44:27;47.00;;;24.23;;
19919;SDS011;10122;50.074;19.920;2022-11-11T05:46:53;44.22;;;23.33;;
19919;SDS011;10122;50.074;19.920;2022-11-11T05:49:18;51.97;;;24.23;;
19919;SDS011;10122;50.074;19.920;2022-11-11T05:51:44;47.28;;;24.70;;
19919;SDS011;10122;50.074;19.920;2022-11-11T05:54:11;45.55;;;24.50;;
19919;SDS011;10122;50.074;19.920;2022-11-11T05:56:37;46.78;;;24.25;;
19919;SDS011;10122;50.074;19.920;2022-11-11T05:59:03;50.50;;;24.55;;
19919;SDS011;10122;50.074;19.920;2022-11-11T06:01:29;47.88;;;25.33;;
19919;SDS011;10122;50.074;19.920;2022-11-11T06:03:55;52.22;;;26.42;;
19919;SDS011;10122;50.074;19.920;2022-11-11T06:06:21;51.38;;;25.40;;
19919;SDS011;10122;50.074;19.920;2022-11-11T06:08:47;48.70;;;25.73;;
19919;SDS011;10122;50.074;19.920;2022-11-11T06:11:12;49.85;;;25.15;;
19919;SDS011;10122;50.074;19.920;2022-11-11T06:13:38;47.97;;;25.38;;
19919;SDS011;10122;50.074;19.920;2022-11-11T06:16:04;50.30;;;25.65;;
19919;SDS011;10122;50.074;19.920;2022-11-11T06:18:30;52.28;;;25.65;;
19919;SDS011;10122;50.074;19.920;2022-11-11T06:20:56;49.58;;;25.48;;
19919;SDS011;10122;50.074;19.920;2022-11-11T06:23:23;50.75;;;25.88;;
19919;SDS011;10122;50.074;19.920;2022-11-11T06:25:49;54.95;;;25.95;;
19919;SDS011;10122;50.074;19.920;2022-11-11T06:28:34;53.53;;;25.55;;
19919;SDS011;10122;50.074;19.920;2022-11-11T06:31:00;52.97;;;26.30;;
19919;SDS011;10122;50.074;19.920;2022-11-11T06:33:26;50.47;;;25.10;;
19919;SDS011;10122;50.074;19.920;2022-11-11T06:35:51;48.30;;;25.33;;
19919;SDS011;10122;50.074;19.920;2022-11-11T06:38:17;50.75;;;26.00;;
19919;SDS011;10122;50.074;19.920;2022-11-11T06:40:43;50.90;;;24.98;;
19919;SDS011;10122;50.074;19.920;2022-11-11T06:43:09;52.92;;;25.10;;
19919;SDS011;10122;50.074;19.920;2022-11-11T06:45:35;51.25;;;24.70;;
19919;SDS011;10122;50.074;19.920;2022-11-11T06:48:02;46.90;;;23.52;;
19919;SDS011;10122;50.074;19.920;2022-11-11T06:50:28;46.45;;;23.17;;
19919;SDS011;10122;50.074;19.920;2022-11-11T06:52:54;45.33;;;24.25;;
19919;SDS011;10122;50.074;19.920;2022-11-11T06:55:20;47.90;;;24.55;;
19919;SDS011;10122;50.074;19.920;2022-11-11T06:57:46;49.28;;;23.83;;
19919;SDS011;10122;50.074;19.920;2022-11-11T07:00:12;45.30;;;23.65;;
19919;SDS011;10122;50.074;19.920;2022-11-11T07:02:38;48.13;;;23.50;;
19919;SDS011;10122;50.074;19.920;2022-11-11T07:05:04;49.58;;;24.17;;
19919;SDS011;10122;50.074;19.920;2022-11-11T07:07:30;45.17;;;23.98;;
19919;SDS011;10122;50.074;19.920;2022-11-11T07:09:56;49.67;;;24.10;;
19919;SDS011;10122;50.074;19.920;2022-11-11T07:12:22;44.17;;;22.95;;
19919;SDS011;10122;50.074;19.920;2022-11-11T07:14:48;50.67;;;23.67;;
19919;SDS011;10122;50.074;19.920;2022-11-11T07:17:14;46.28;;;23.85;;
19919;SDS011;10122;50.074;19.920;2022-11-11T07:19:40;44.97;;;23.10;;
19919;SDS011;10122;50.074;19.920;2022-11-11T07:22:05;46.63;;;22.52;;
19919;SDS011;10122;50.074;19.920;2022-11-11T07:24:31;41.58;;;22.23;;
19919;SDS011;10122;50.074;19.920;2022-11-11T07:26:56;43.97;;;22.15;;
19919;SDS011;10122;50.074;19.920;2022-11-11T07:29:23;43.97;;;22.48;;
19919;SDS011;10122;50.074;19.920;2022-11-11T07:31:49;42.08;;;21.55;;
19919;SDS011;10122;50.074;19.920;2022-11-11T07:34:15;41.58;;;21.65;;
19919;SDS011;10122;50.074;19.920;2022-11-11T07:36:41;41.53;;;21.48;;
19919;SDS011;10122;50.074;19.920;2022-11-11T07:39:06;42.95;;;21.48;;
19919;SDS011;10122;50.074;19.920;2022-11-11T07:41:32;40.58;;;21.92;;
19919;SDS011;10122;50.074;19.920;2022-11-11T07:43:58;41.35;;;21.92;;
19919;SDS011;10122;50.074;19.920;2022-11-11T07:46:23;44.45;;;22.38;;
19919;SDS011;10122;50.074;19.920;2022-11-11T07:48:49;38.80;;;20.65;;
19919;SDS011;10122;50.074;19.920;2022-11-11T07:51:15;37.05;;;19.48;;
19919;SDS011;10122;50.074;19.920;2022-11-11T07:53:50;37.90;;;19.40;;
19919;SDS011;10122;50.074;19.920;2022-11-11T07:56:16;40.22;;;19.33;;
19919;SDS011;10122;50.074;19.920;2022-11-11T07:58:42;35.28;;;19.02;;
19919;SDS011;10122;50.074;19.920;2022-11-11T08:01:07;39.17;;;19.02;;
19919;SDS011;10122;50.074;19.920;2022-11-11T08:03:33;31.05;;;17.80;;
19919;SDS011;10122;50.074;19.920;2022-11-11T08:06:00;33.05;;;16.45;;
19919;SDS011;10122;50.074;19.920;2022-11-11T08:08:27;30.88;;;16.60;;
19919;SDS011;10122;50.074;19.920;2022-11-11T08:10:53;28.92;;;15.85;;
19919;SDS011;10122;50.074;19.920;2022-11-11T08:13:19;26.38;;;15.23;;
19919;SDS011;10122;50.074;19.920;2022-11-11T08:16:03;29.17;;;15.45;;
19919;SDS011;10122;50.074;19.920;2022-11-11T08:18:31;28.45;;;14.85;;
19919;SDS011;10122;50.074;19.920;2022-11-11T08:20:57;29.38;;;15.32;;
19919;SDS011;10122;50.074;19.920;2022-11-11T08:23:23;27.40;;;14.40;;
19919;SDS011;10122;50.074;19.920;2022-11-11T08:25:57;23.38;;;13.40;;
19919;SDS011;10122;50.074;19.920;2022-11-11T08:28:27;22.55;;;12.85;;
19919;SDS011;10122;50.074;19.920;2022-11-11T08:30:54;21.80;;;12.38;;
19919;SDS011;10122;50.074;19.920;2022-11-11T08:33:21;21.58;;;12.68;;
19919;SDS011;10122;50.074;19.920;2022-11-11T08:35:47;23.80;;;13.38;;
19919;SDS011;10122;50.074;19.920;2022-11-11T08:38:13;22.40;;;13.48;;
19919;SDS011;10122;50.074;19.920;2022-11-11T08:40:39;25.23;;;14.45;;
19919;SDS011;10122;50.074;19.920;2022-11-11T08:43:06;25.35;;;14.15;;
19919;SDS011;10122;50.074;19.920;2022-11-11T08:45:32;22.40;;;13.70;;
19919;SDS011;10122;50.074;19.920;2022-11-11T08:47:58;23.05;;;12.63;;
19919;SDS011;10122;50.074;19.920;2022-11-11T08:50:23;23.90;;;12.82;;
19919;SDS011;10122;50.074;19.920;2022-11-11T08:52:49;21.27;;;12.52;;
19919;SDS011;10122;50.074;19.920;2022-11-11T08:55:16;22.52;;;12.73;;
19919;SDS011;10122;50.074;19.920;2022-11-11T08:57:42;21.88;;;12.40;;
19919;SDS011;10122;50.074;19.920;2022-11-11T09:00:08;22.20;;;12.25;;
19919;SDS011;10122;50.074;19.920;2022-11-11T09:02:35;21.55;;;12.05;;
19919;SDS011;10122;50.074;19.920;2022-11-11T09:05:01;25.85;;;12.65;;
19919;SDS011;10122;50.074;19.920;2022-11-11T09:07:27;21.55;;;12.68;;
19919;SDS011;10122;50.074;19.920;2022-11-11T09:09:52;19.80;;;11.65;;
19919;SDS011;10122;50.074;19.920;2022-11-11T09:12:18;21.30;;;13.00;;
19919;SDS011;10122;50.074;19.920;2022-11-11T09:14:43;19.27;;;11.90;;
19919;SDS011;10122;50.074;19.920;2022-11-11T09:17:09;20.23;;;11.63;;
19919;SDS011;10122;50.074;19.920;2022-11-11T09:19:35;20.00;;;11.63;;
19919;SDS011;10122;50.074;19.920;2022-11-11T09:22:01;18.65;;;11.30;;
19919;SDS011;10122;50.074;19.920;2022-11-11T09:24:27;21.40;;;12.13;;
19919;SDS011;10122;50.074;19.920;2022-11-11T09:26:53;20.63;;;12.13;;
19919;SDS011;10122;50.074;19.920;2022-11-11T09:29:18;18.83;;;11.43;;
19919;SDS011;10122;50.074;19.920;2022-11-11T09:31:45;18.70;;;11.30;;
19919;SDS011;10122;50.074;19.920;2022-11-11T09:34:11;20.60;;;11.82;;
19919;SDS011;10122;50.074;19.920;2022-11-11T09:36:37;19.27;;;11.25;;
19919;SDS011;10122;50.074;19.920;2022-11-11T09:39:03;17.02;;;10.18;;
19919;SDS011;10122;50.074;19.920;2022-11-11T09:44:50;15.05;;;9.27;;
19919;SDS011;10122;50.074;19.920;2022-11-11T09:47:17;14.13;;;9.07;;
19919;SDS011;10122;50.074;19.920;2022-11-11T09:50:44;13.50;;;8.05;;
19919;SDS011;10122;50.074;19.920;2022-11-11T09:55:51;11.60;;;7.43;;
19919;SDS011;10122;50.074;19.920;2022-11-11T10:00:56;11.00;;;7.00;;
19919;SDS011;10122;50.074;19.920;2022-11-11T10:03:29;11.80;;;6.35;;
19919;SDS011;10122;50.074;19.920;2022-11-11T10:06:06;10.38;;;6.25;;
19919;SDS011;10122;50.074;19.920;2022-11-11T10:08:47;10.20;;;5.90;;
19919;SDS011;10122;50.074;19.920;2022-11-11T10:11:28;13.05;;;6.88;;
19919;SDS011;10122;50.074;19.920;2022-11-11T10:13:58;12.02;;;7.05;;
19919;SDS011;10122;50.074;19.920;2022-11-11T10:21:53;11.07;;;6.70;;
19919;SDS011;10122;50.074;19.920;2022-11-11T10:24:34;12.05;;;6.85;;
19919;SDS011;10122;50.074;19.920;2022-11-11T10:27:25;10.98;;;6.20;;
19919;SDS011;10122;50.074;19.920;2022-11-11T10:29:51;12.15;;;5.75;;
19919;SDS011;10122;50.074;19.920;2022-11-11T10:32:18;11.60;;;6.18;;
19919;SDS011;10122;50.074;19.920;2022-11-11T10:34:47;12.07;;;5.72;;
19919;SDS011;10122;50.074;19.920;2022-11-11T10:37:17;10.05;;;5.45;;
19919;SDS011;10122;50.074;19.920;2022-11-11T10:39:59;10.38;;;5.68;;
19919;SDS011;10122;50.074;19.920;2022-11-11T10:42:43;8.50;;;5.18;;
19919;SDS011;10122;50.074;19.920;2022-11-11T10:45:15;10.73;;;5.32;;
19919;SDS011;10122;50.074;19.920;2022-11-11T10:48:05;7.65;;;5.00;;
19919;SDS011;10122;50.074;19.920;2022-11-11T10:50:40;9.70;;;5.00;;
19919;SDS011;10122;50.074;19.920;2022-11-11T11:01:31;7.43;;;4.53;;
19919;SDS011;10122;50.074;19.920;2022-11-11T11:04:09;11.07;;;5.10;;
19919;SDS011;10122;50.074;19.920;2022-11-11T11:06:59;10.77;;;5.38;;
19919;SDS011;10122;50.074;19.920;2022-11-11T11:09:30;9.18;;;5.45;;
19919;SDS011;10122;50.074;19.920;2022-11-11T11:14:58;10.15;;;5.72;;
19919;SDS011;10122;50.074;19.920;2022-11-11T11:18:27;9.95;;;5.93;;
19919;SDS011;10122;50.074;19.920;2022-11-11T11:20:33;10.25;;;5.93;;
19919;SDS011;10122;50.074;19.920;2022-11-11T11:23:00;11.55;;;5.55;;
19919;SDS011;10122;50.074;19.920;2022-11-11T11:25:27;10.85;;;5.80;;
19919;SDS011;10122;50.074;19.920;2022-11-11T11:30:36;13.80;;;6.35;;
19919;SDS011;10122;50.074;19.920;2022-11-11T11:33:08;12.25;;;6.15;;
19919;SDS011;10122;50.074;19.920;2022-11-11T11:38:06;10.25;;;6.43;;
19919;SDS011;10122;50.074;19.920;2022-11-11T11:41:06;15.02;;;6.75;;
19919;SDS011;10122;50.074;19.920;2022-11-11T11:43:32;14.15;;;7.15;;
19919;SDS011;10122;50.074;19.920;2022-11-11T11:46:00;12.55;;;6.80;;
19919;SDS011;10122;50.074;19.920;2022-11-11T11:48:47;11.57;;;6.75;;
19919;SDS011;10122;50.074;19.920;2022-11-11T11:51:42;12.27;;;6.65;;
19919;SDS011;10122;50.074;19.920;2022-11-11T11:56:57;14.05;;;7.15;;
19919;SDS011;10122;50.074;19.920;2022-11-11T11:59:31;13.93;;;6.93;;
19919;SDS011;10122;50.074;19.920;2022-11-11T12:02:00;13.75;;;6.70;;
19919;SDS011;10122;50.074;19.920;2022-11-11T12:05:02;13.70;;;6.88;;
19919;SDS011;10122;50.074;19.920;2022-11-11T12:10:48;12.48;;;6.47;;
19919;SDS011;10122;50.074;19.920;2022-11-11T12:21:48;9.38;;;4.47;;
19919;SDS011;10122;50.074;19.920;2022-11-11T12:38:03;8.20;;;4.70;;
19919;SDS011;10122;50.074;19.920;2022-11-11T12:44:06;7.47;;;3.83;;
19919;SDS011;10122;50.074;19.920;2022-11-11T12:46:39;7.97;;;3.58;;
19919;SDS011;10122;50.074;19.920;2022-11-11T13:00:25;8.25;;;4.00;;
19919;SDS011;10122;50.074;19.920;2022-11-11T13:11:10;8.90;;;3.92;;
19919;SDS011;10122;50.074;19.920;2022-11-11T13:16:40;7.30;;;3.70;;
19919;SDS011;10122;50.074;19.920;2022-11-11T13:22:26;7.45;;;3.83;;
19919;SDS011;10122;50.074;19.920;2022-11-11T13:24:56;7.47;;;3.90;;
19919;SDS011;10122;50.074;19.920;2022-11-11T13:27:37;7.30;;;4.15;;
19919;SDS011;10122;50.074;19.920;2022-11-11T13:33:04;7.65;;;4.07;;
19919;SDS011;10122;50.074;19.920;2022-11-11T13:35:49;8.07;;;4.30;;
19919;SDS011;10122;50.074;19.920;2022-11-11T13:41:03;9.73;;;4.55;;
19919;SDS011;10122;50.074;19.920;2022-11-11T13:43:32;10.30;;;4.90;;
19919;SDS011;10122;50.074;19.920;2022-11-11T13:46:01;10.93;;;5.05;;
19919;SDS011;10122;50.074;19.920;2022-11-11T13:48:30;8.20;;;4.60;;
19919;SDS011;10122;50.074;19.920;2022-11-11T13:51:19;8.80;;;4.90;;
19919;SDS011;10122;50.074;19.920;2022-11-11T13:53:49;8.57;;;4.68;;
19919;SDS011;10122;50.074;19.920;2022-11-11T13:58:59;9.55;;;5.00;;
19919;SDS011;10122;50.074;19.920;2022-11-11T14:01:31;9.50;;;5.38;;
19919;SDS011;10122;50.074;19.920;2022-11-11T14:04:05;10.65;;;5.10;;
19919;SDS011;10122;50.074;19.920;2022-11-11T14:08:58;9.88;;;5.15;;
19919;SDS011;10122;50.074;19.920;2022-11-11T14:13:56;11.90;;;5.18;;
19919;SDS011;10122;50.074;19.920;2022-11-11T14:29:40;11.77;;;5.65;;
19919;SDS011;10122;50.074;19.920;2022-11-11T14:32:22;11.88;;;5.70;;
19919;SDS011;10122;50.074;19.920;2022-11-11T14:40:38;12.85;;;5.47;;
19919;SDS011;10122;50.074;19.920;2022-11-11T14:46:07;12.55;;;5.68;;
19919;SDS011;10122;50.074;19.920;2022-11-11T14:48:54;10.70;;;5.65;;
19919;SDS011;10122;50.074;19.920;2022-11-11T14:51:42;13.73;;;5.28;;
19919;SDS011;10122;50.074;19.920;2022-11-11T14:54:33;11.77;;;5.78;;
19919;SDS011;10122;50.074;19.920;2022-11-11T14:57:09;10.07;;;5.40;;
19919;SDS011;10122;50.074;19.920;2022-11-11T14:59:50;10.00;;;5.68;;
19919;SDS011;10122;50.074;19.920;2022-11-11T15:02:29;9.90;;;5.50;;
19919;SDS011;10122;50.074;19.920;2022-11-11T15:04:59;10.57;;;5.43;;
19919;SDS011;10122;50.074;19.920;2022-11-11T15:07:39;10.60;;;5.47;;
19919;SDS011;10122;50.074;19.920;2022-11-11T15:10:40;10.57;;;5.90;;
19919;SDS011;10122;50.074;19.920;2022-11-11T15:13:18;10.57;;;5.80;;
19919;SDS011;10122;50.074;19.920;2022-11-11T15:21:18;14.23;;;6.93;;
19919;SDS011;10122;50.074;19.920;2022-11-11T15:24:36;13.63;;;6.07;;
19919;SDS011;10122;50.074;19.920;2022-11-11T15:37:38;13.52;;;6.43;;
19919;SDS011;10122;50.074;19.920;2022-11-11T15:40:05;12.60;;;6.30;;
19919;SDS011;10122;50.074;19.920;2022-11-11T15:42:32;13.40;;;6.40;;
19919;SDS011;10122;50.074;19.920;2022-11-11T15:45:07;12.63;;;6.13;;
19919;SDS011;10122;50.074;19.920;2022-11-11T15:47:41;11.60;;;5.95;;
19919;SDS011;10122;50.074;19.920;2022-11-11T15:52:53;10.77;;;6.13;;
19919;SDS011;10122;50.074;19.920;2022-11-11T15:55:32;12.75;;;6.38;;
19919;SDS011;10122;50.074;19.920;2022-11-11T15:58:08;9.88;;;6.28;;
19919;SDS011;10122;50.074;19.920;2022-11-11T16:00:42;12.63;;;6.63;;
19919;SDS011;10122;50.074;19.920;2022-11-11T16:03:13;12.48;;;6.93;;
19919;SDS011;10122;50.074;19.920;2022-11-11T16:05:47;12.60;;;6.60;;
19919;SDS011;10122;50.074;19.920;2022-11-11T16:08:17;13.73;;;7.03;;
19919;SDS011;10122;50.074;19.920;2022-11-11T16:10:52;12.63;;;7.18;;
19919;SDS011;10122;50.074;19.920;2022-11-11T16:13:22;13.38;;;7.30;;
19919;SDS011;10122;50.074;19.920;2022-11-11T16:16:04;13.80;;;7.22;;
19919;SDS011;10122;50.074;19.920;2022-11-11T16:19:20;13.38;;;7.70;;
19919;SDS011;10122;50.074;19.920;2022-11-11T16:22:00;12.63;;;6.82;;
19919;SDS011;10122;50.074;19.920;2022-11-11T16:24:31;14.68;;;6.93;;
19919;SDS011;10122;50.074;19.920;2022-11-11T16:27:02;12.23;;;7.20;;
19919;SDS011;10122;50.074;19.920;2022-11-11T16:29:32;14.60;;;7.13;;
19919;SDS011;10122;50.074;19.920;2022-11-11T16:34:47;12.05;;;7.30;;
19919;SDS011;10122;50.074;19.920;2022-11-11T16:37:14;11.73;;;7.13;;
19919;SDS011;10122;50.074;19.920;2022-11-11T16:39:42;13.05;;;7.07;;
19919;SDS011;10122;50.074;19.920;2022-11-11T16:44:48;15.13;;;7.70;;
19919;SDS011;10122;50.074;19.920;2022-11-11T16:50:03;12.88;;;7.65;;
19919;SDS011;10122;50.074;19.920;2022-11-11T16:52:58;15.98;;;7.65;;
19919;SDS011;10122;50.074;19.920;2022-11-11T16:55:38;13.45;;;7.65;;
19919;SDS011;10122;50.074;19.920;2022-11-11T16:58:11;15.38;;;7.40;;
19919;SDS011;10122;50.074;19.920;2022-11-11T17:00:42;13.15;;;7.72;;
19919;SDS011;10122;50.074;19.920;2022-11-11T17:03:21;18.63;;;8.23;;
19919;SDS011;10122;50.074;19.920;2022-11-11T17:08:40;14.40;;;8.15;;
19919;SDS011;10122;50.074;19.920;2022-11-11T17:11:40;16.13;;;8.50;;
19919;SDS011;10122;50.074;19.920;2022-11-11T17:14:06;18.23;;;9.00;;
19919;SDS011;10122;50.074;19.920;2022-11-11T17:16:32;17.80;;;9.88;;
19919;SDS011;10122;50.074;19.920;2022-11-11T17:18:58;19.33;;;9.80;;
19919;SDS011;10122;50.074;19.920;2022-11-11T17:21:24;18.27;;;9.48;;
19919;SDS011;10122;50.074;19.920;2022-11-11T17:23:51;18.15;;;9.38;;
19919;SDS011;10122;50.074;19.920;2022-11-11T17:26:17;17.88;;;9.60;;